sensor_id;sensor_type;location;lat;lon;timestamp;pressure;altitude;pressure_sealevel;temperature;humidity
14253;BME280;7210;51.502;10.722;2023-06-22T00:01:18;99848.34;;;19.30;100.00
14253;BME280;7210;51.502;10.722;2023-06-22T00:03:45;99848.34;;;19.30;100.00
14253;BME280;7210;51.502;10.722;2023-06-22T00:06:22;99848.56;;;19.33;100.00
14253;BME280;7210;51.502;10.722;2023-06-22T00:09:08;99849.63;;;19.32;100.00
14253;BME280;7210;51.502;10.722;2023-06-22T00:11:50;99839.50;;;19.24;100.00
14253;BME280;7210;51.502;10.722;2023-06-22T00:14:20;99846.47;;;19.15;100.00
14253;BME280;7210;51.502;10.722;2023-06-22T00:16:47;99837.66;;;19.10;100.00
14253;BME280;7210;51.502;10.722;2023-06-22T00:19:15;99844.41;;;19.02;100.00
14253;BME280;7210;51.502;10.722;2023-06-22T00:21:49;99841.22;;;18.95;100.00
14253;BME280;7210;51.502;10.722;2023-06-22T00:24:19;99846.09;;;18.83;100.00
14253;BME280;7210;51.502;10.722;2023-06-22T00:26:47;99866.72;;;18.88;100.00
14253;BME280;7210;51.502;10.722;2023-06-22T00:29:21;99879.31;;;18.82;100.00
14253;BME280;7210;51.502;10.722;2023-06-22T00:31:49;99883.34;;;18.85;100.00
14253;BME280;7210;51.502;10.722;2023-06-22T00:34:16;99893.28;;;18.79;100.00
14253;BME280;7210;51.502;10.722;2023-06-22T00:36:44;99890.59;;;18.79;100.00
14253;BME280;7210;51.502;10.722;2023-06-22T00:39:13;99882.84;;;18.73;100.00
14253;BME280;7210;51.502;10.722;2023-06-22T00:42:14;99886.34;;;18.63;100.00
14253;BME280;7210;51.502;10.722;2023-06-22T00:44:50;99882.06;;;18.62;100.00
14253;BME280;7210;51.502;10.722;2023-06-22T00:47:21;99864.38;;;18.61;100.00
14253;BME280;7210;51.502;10.722;2023-06-22T00:49:50;99861.69;;;18.71;100.00
14253;BME280;7210;51.502;10.722;2023-06-22T00:52:20;99860.84;;;18.81;100.00
14253;BME280;7210;51.502;10.722;2023-06-22T00:54:54;99860.06;;;18.80;100.00
14253;BME280;7210;51.502;10.722;2023-06-22T00:57:24;99846.66;;;18.70;100.00
14253;BME280;7210;51.502;10.722;2023-06-22T00:59:55;99843.47;;;18.63;100.00
14253;BME280;7210;51.502;10.722;2023-06-22T01:02:22;99838.97;;;18.54;100.00
14253;BME280;7210;51.502;10.722;2023-06-22T01:04:51;99826.91;;;18.46;100.00
14253;BME280;7210;51.502;10.722;2023-06-22T01:07:30;99830.16;;;18.38;100.00
14253;BME280;7210;51.502;10.722;2023-06-22T01:10:08;99839.25;;;18.37;100.00
14253;BME280;7210;51.502;10.722;2023-06-22T01:12:42;99837.09;;;18.29;100.00
14253;BME280;7210;51.502;10.722;2023-06-22T01:15:25;99827.75;;;18.22;100.00
14253;BME280;7210;51.502;10.722;2023-06-22T01:17:57;99832.31;;;18.26;100.00
14253;BME280;7210;51.502;10.722;2023-06-22T01:20:27;99828.03;;;18.30;100.00
14253;BME280;7210;51.502;10.722;2023-06-22T01:23:10;99825.59;;;18.24;100.00
14253;BME280;7210;51.502;10.722;2023-06-22T01:25:54;99824.81;;;18.18;100.00
14253;BME280;7210;51.502;10.722;2023-06-22T01:28:45;99818.66;;;18.18;100.00
14253;BME280;7210;51.502;10.722;2023-06-22T01:31:16;99810.88;;;18.26;100.00
14253;BME280;7210;51.502;10.722;2023-06-22T01:33:50;99809.81;;;18.32;100.00
14253;BME280;7210;51.502;10.722;2023-06-22T01:36:18;99803.66;;;18.37;100.00
14253;BME280;7210;51.502;10.722;2023-06-22T01:38:47;99810.31;;;18.39;100.00
14253;BME280;7210;51.502;10.722;2023-06-22T01:41:44;99804.97;;;18.24;100.00
14253;BME280;7210;51.502;10.722;2023-06-22T01:44:16;99816.25;;;18.26;100.00
14253;BME280;7210;51.502;10.722;2023-06-22T01:46:52;99806.59;;;18.20;100.00
14253;BME280;7210;51.502;10.722;2023-06-22T01:49:19;99807.69;;;18.14;100.00
14253;BME280;7210;51.502;10.722;2023-06-22T01:51:47;99803.66;;;18.12;100.00
14253;BME280;7210;51.502;10.722;2023-06-22T01:54:14;99791.91;;;18.08;100.00
14253;BME280;7210;51.502;10.722;2023-06-22T01:56:41;99805.81;;;18.05;100.00
14253;BME280;7210;51.502;10.722;2023-06-22T01:59:16;99798.06;;;18.03;100.00
14253;BME280;7210;51.502;10.722;2023-06-22T02:01:52;99805.03;;;18.09;100.00
14253;BME280;7210;51.502;10.722;2023-06-22T02:04:27;99795.91;;;18.00;100.00
14253;BME280;7210;51.502;10.722;2023-06-22T02:09:48;99788.97;;;18.04;100.00
14253;BME280;7210;51.502;10.722;2023-06-22T02:12:25;99787.91;;;17.95;100.00
14253;BME280;7210;51.502;10.722;2023-06-22T02:14:55;99772.94;;;17.89;100.00
14253;BME280;7210;51.502;10.722;2023-06-22T02:20:14;99770.81;;;17.86;100.00
14253;BME280;7210;51.502;10.722;2023-06-22T02:22:42;99768.91;;;17.87;100.00
14253;BME280;7210;51.502;10.722;2023-06-22T02:25:10;99775.88;;;17.88;100.00
14253;BME280;7210;51.502;10.722;2023-06-22T02:27:38;99775.34;;;17.86;100.00
14253;BME280;7210;51.502;10.722;2023-06-22T02:30:09;99782.56;;;17.80;100.00
14253;BME280;7210;51.502;10.722;2023-06-22T02:32:38;99775.09;;;17.72;100.00
14253;BME280;7210;51.502;10.722;2023-06-22T02:35:08;99780.16;;;17.74;100.00
14253;BME280;7210;51.502;10.722;2023-06-22T02:37:36;99787.38;;;17.68;100.00
14253;BME280;7210;51.502;10.722;2023-06-22T02:40:08;99810.66;;;17.68;100.00
14253;BME280;7210;51.502;10.722;2023-06-22T02:42:36;99809.84;;;17.62;100.00
14253;BME280;7210;51.502;10.722;2023-06-22T02:45:04;99816.28;;;17.66;100.00
14253;BME280;7210;51.502;10.722;2023-06-22T02:47:33;99829.66;;;17.66;100.00
14253;BME280;7210;51.502;10.722;2023-06-22T02:50:01;99826.44;;;17.64;100.00
14253;BME280;7210;51.502;10.722;2023-06-22T02:52:31;99835.25;;;17.65;100.00
14253;BME280;7210;51.502;10.722;2023-06-22T02:55:00;99841.94;;;17.62;100.00
14253;BME280;7210;51.502;10.722;2023-06-22T02:57:28;99844.59;;;17.62;100.00
14253;BME280;7210;51.502;10.722;2023-06-22T02:59:56;99851.56;;;17.68;100.00
14253;BME280;7210;51.502;10.722;2023-06-22T03:02:23;99854.25;;;17.73;100.00
14253;BME280;7210;51.502;10.722;2023-06-22T03:04:53;99860.66;;;17.77;100.00
14253;BME280;7210;51.502;10.722;2023-06-22T03:07:21;99870.59;;;17.87;100.00
14253;BME280;7210;51.502;10.722;2023-06-22T03:09:50;99862.56;;;17.77;100.00
14253;BME280;7210;51.502;10.722;2023-06-22T03:12:17;99870.56;;;17.82;100.00
14253;BME280;7210;51.502;10.722;2023-06-22T03:14:51;99881.00;;;17.83;100.00
14253;BME280;7210;51.502;10.722;2023-06-22T03:17:18;99881.00;;;17.83;100.00
14253;BME280;7210;51.502;10.722;2023-06-22T03:19:46;99887.47;;;17.87;100.00
14253;BME280;7210;51.502;10.722;2023-06-22T03:22:14;99891.72;;;17.93;100.00
14253;BME280;7210;51.502;10.722;2023-06-22T03:24:41;99890.13;;;17.92;100.00
14253;BME280;7210;51.502;10.722;2023-06-22T03:27:08;99894.94;;;17.95;100.00
14253;BME280;7210;51.502;10.722;2023-06-22T03:29:35;99901.91;;;17.96;100.00
14253;BME280;7210;51.502;10.722;2023-06-22T03:32:04;99904.31;;;17.98;100.00
14253;BME280;7210;51.502;10.722;2023-06-22T03:34:32;99905.66;;;18.05;100.00
14253;BME280;7210;51.502;10.722;2023-06-22T03:37:00;99900.28;;;18.15;100.00
14253;BME280;7210;51.502;10.722;2023-06-22T03:39:28;99901.34;;;18.29;100.00
14253;BME280;7210;51.502;10.722;2023-06-22T03:41:57;99899.25;;;18.36;100.00
14253;BME280;7210;51.502;10.722;2023-06-22T03:44:25;99895.75;;;18.36;100.00
14253;BME280;7210;51.502;10.722;2023-06-22T03:46:52;99887.47;;;18.37;100.00
14253;BME280;7210;51.502;10.722;2023-06-22T03:49:19;99884.50;;;18.44;100.00
14253;BME280;7210;51.502;10.722;2023-06-22T03:51:46;99882.06;;;18.47;100.00
14253;BME280;7210;51.502;10.722;2023-06-22T03:54:13;99869.75;;;18.46;100.00
14253;BME280;7210;51.502;10.722;2023-06-22T03:56:42;99859.56;;;18.53;100.00
14253;BME280;7210;51.502;10.722;2023-06-22T03:59:09;99859.31;;;18.60;100.00
14253;BME280;7210;51.502;10.722;2023-06-22T04:01:36;99859.78;;;18.72;100.00
14253;BME280;7210;51.502;10.722;2023-06-22T04:04:04;99848.50;;;18.80;100.00
14253;BME280;7210;51.502;10.722;2023-06-22T04:06:35;99853.03;;;18.89;100.00
14253;BME280;7210;51.502;10.722;2023-06-22T04:09:02;99842.00;;;18.96;100.00
14253;BME280;7210;51.502;10.722;2023-06-22T04:11:30;99838.50;;;19.00;100.00
14253;BME280;7210;51.502;10.722;2023-06-22T04:13:58;99838.50;;;19.00;100.00
14253;BME280;7210;51.502;10.722;2023-06-22T04:16:26;99833.41;;;19.04;100.00
14253;BME280;7210;51.502;10.722;2023-06-22T04:18:53;99829.91;;;19.08;100.00
14253;BME280;7210;51.502;10.722;2023-06-22T04:21:20;99822.94;;;19.07;100.00
14253;BME280;7210;51.502;10.722;2023-06-22T04:23:47;99820.25;;;19.12;100.00
14253;BME280;7210;51.502;10.722;2023-06-22T04:26:14;99820.19;;;19.22;100.00
14253;BME280;7210;51.502;10.722;2023-06-22T04:28:42;99819.09;;;19.28;100.00
14253;BME280;7210;51.502;10.722;2023-06-22T04:31:10;99811.81;;;19.34;100.00
14253;BME280;7210;51.502;10.722;2023-06-22T04:33:38;99807.97;;;19.44;100.00
14253;BME280;7210;51.502;10.722;2023-06-22T04:36:06;99806.00;;;19.60;100.00
14253;BME280;7210;51.502;10.722;2023-06-22T04:38:33;99809.28;;;19.85;100.00
14253;BME280;7210;51.502;10.722;2023-06-22T04:41:00;99806.72;;;20.04;100.00
14253;BME280;7210;51.502;10.722;2023-06-22T04:43:29;99796.88;;;20.23;100.00
14253;BME280;7210;51.502;10.722;2023-06-22T04:45:56;99796.13;;;20.41;100.00
14253;BME280;7210;51.502;10.722;2023-06-22T04:48:30;99803.47;;;20.59;100.00
14253;BME280;7210;51.502;10.722;2023-06-22T04:50:59;99802.75;;;20.72;100.00
14253;BME280;7210;51.502;10.722;2023-06-22T04:53:29;99795.28;;;20.69;100.00
14253;BME280;7210;51.502;10.722;2023-06-22T04:55:56;99796.81;;;20.75;100.00
14253;BME280;7210;51.502;10.722;2023-06-22T04:58:23;99797.59;;;20.75;100.00
14253;BME280;7210;51.502;10.722;2023-06-22T05:00:54;99792.22;;;20.75;100.00
14253;BME280;7210;51.502;10.722;2023-06-22T05:03:24;99790.88;;;20.78;100.00
14253;BME280;7210;51.502;10.722;2023-06-22T05:05:54;99785.50;;;20.78;100.00
14253;BME280;7210;51.502;10.722;2023-06-22T05:08:21;99784.34;;;20.84;100.00
14253;BME280;7210;51.502;10.722;2023-06-22T05:10:52;99782.63;;;20.93;100.00
14253;BME280;7210;51.502;10.722;2023-06-22T05:13:19;99782.13;;;20.91;100.00
14253;BME280;7210;51.502;10.722;2023-06-22T05:15:47;99789.06;;;20.97;100.00
14253;BME280;7210;51.502;10.722;2023-06-22T05:18:14;99787.97;;;20.98;100.00
14253;BME280;7210;51.502;10.722;2023-06-22T05:20:41;99807.22;;;21.05;100.00
14253;BME280;7210;51.502;10.722;2023-06-22T05:23:10;99817.63;;;21.11;100.00
14253;BME280;7210;51.502;10.722;2023-06-22T05:25:37;99829.25;;;21.07;100.00
14253;BME280;7210;51.502;10.722;2023-06-22T05:28:04;99842.19;;;21.05;100.00
14253;BME280;7210;51.502;10.722;2023-06-22T05:30:37;99855.19;;;20.98;100.00
14253;BME280;7210;51.502;10.722;2023-06-22T05:33:04;99859.81;;;20.92;100.00
14253;BME280;7210;51.502;10.722;2023-06-22T05:35:32;99865.50;;;20.86;100.00
14253;BME280;7210;51.502;10.722;2023-06-22T05:37:59;99867.41;;;20.85;100.00
14253;BME280;7210;51.502;10.722;2023-06-22T05:40:27;99864.75;;;20.80;100.00
14253;BME280;7210;51.502;10.722;2023-06-22T05:42:55;99873.69;;;20.76;100.00
14253;BME280;7210;51.502;10.722;2023-06-22T05:45:22;99874.47;;;20.76;100.00
14253;BME280;7210;51.502;10.722;2023-06-22T05:47:52;99871.78;;;20.76;100.00
14253;BME280;7210;51.502;10.722;2023-06-22T05:50:21;99886.00;;;20.82;100.00
14253;BME280;7210;51.502;10.722;2023-06-22T05:52:50;99888.38;;;20.83;100.00
14253;BME280;7210;51.502;10.722;2023-06-22T05:55:18;99885.94;;;20.87;100.00
14253;BME280;7210;51.502;10.722;2023-06-22T05:57:48;99889.19;;;20.89;100.00
14253;BME280;7210;51.502;10.722;2023-06-22T06:00:17;99893.84;;;21.02;100.00
14253;BME280;7210;51.502;10.722;2023-06-22T06:02:46;99884.81;;;21.16;100.00
14253;BME280;7210;51.502;10.722;2023-06-22T06:05:15;99889.56;;;21.43;100.00
14253;BME280;7210;51.502;10.722;2023-06-22T06:07:47;99889.63;;;21.56;100.00
14253;BME280;7210;51.502;10.722;2023-06-22T06:10:17;99888.34;;;21.72;100.00
14253;BME280;7210;51.502;10.722;2023-06-22T06:12:44;99890.28;;;22.04;100.00
14253;BME280;7210;51.502;10.722;2023-06-22T06:15:13;99874.38;;;22.21;100.00
14253;BME280;7210;51.502;10.722;2023-06-22T06:17:46;99870.81;;;22.39;100.00
14253;BME280;7210;51.502;10.722;2023-06-22T06:20:13;99878.38;;;22.69;100.00
14253;BME280;7210;51.502;10.722;2023-06-22T06:22:41;99882.19;;;22.81;100.00
14253;BME280;7210;51.502;10.722;2023-06-22T06:25:10;99886.66;;;22.99;100.00
14253;BME280;7210;51.502;10.722;2023-06-22T06:27:42;99879.78;;;23.07;99.31
14253;BME280;7210;51.502;10.722;2023-06-22T06:30:14;99903.66;;;23.27;98.18
14253;BME280;7210;51.502;10.722;2023-06-22T06:32:43;99925.28;;;23.40;97.82
14253;BME280;7210;51.502;10.722;2023-06-22T06:35:13;99944.41;;;23.66;96.71
14253;BME280;7210;51.502;10.722;2023-06-22T06:37:43;99952.41;;;23.71;95.26
14253;BME280;7210;51.502;10.722;2023-06-22T06:40:13;99960.59;;;23.79;94.63
14253;BME280;7210;51.502;10.722;2023-06-22T06:42:43;99983.19;;;23.96;93.03
14253;BME280;7210;51.502;10.722;2023-06-22T06:45:14;99970.41;;;23.88;91.18
14253;BME280;7210;51.502;10.722;2023-06-22T06:47:42;99989.78;;;24.04;90.54
14253;BME280;7210;51.502;10.722;2023-06-22T06:50:10;99991.41;;;23.92;89.80
14253;BME280;7210;51.502;10.722;2023-06-22T06:52:38;100025.22;;;24.02;89.30
14253;BME280;7210;51.502;10.722;2023-06-22T06:55:06;100042.19;;;24.16;88.89
14253;BME280;7210;51.502;10.722;2023-06-22T06:57:37;100043.25;;;24.29;87.78
14253;BME280;7210;51.502;10.722;2023-06-22T07:00:07;100046.38;;;24.22;86.58
14253;BME280;7210;51.502;10.722;2023-06-22T07:02:39;100062.06;;;23.98;87.17
14253;BME280;7210;51.502;10.722;2023-06-22T07:05:07;100077.75;;;24.10;87.03
14253;BME280;7210;51.502;10.722;2023-06-22T07:07:35;100087.03;;;24.17;86.60
14253;BME280;7210;51.502;10.722;2023-06-22T07:10:02;100088.25;;;24.11;86.42
14253;BME280;7210;51.502;10.722;2023-06-22T07:12:29;100104.06;;;24.04;85.78
14253;BME280;7210;51.502;10.722;2023-06-22T07:15:02;100106.78;;;23.77;86.35
14253;BME280;7210;51.502;10.722;2023-06-22T07:17:30;100123.25;;;23.63;86.65
14253;BME280;7210;51.502;10.722;2023-06-22T07:19:58;100132.84;;;23.55;87.11
14253;BME280;7210;51.502;10.722;2023-06-22T07:22:25;100136.47;;;23.64;87.31
14253;BME280;7210;51.502;10.722;2023-06-22T07:24:53;100146.63;;;23.86;87.25
14253;BME280;7210;51.502;10.722;2023-06-22T07:27:20;100132.63;;;23.97;87.44
14253;BME280;7210;51.502;10.722;2023-06-22T07:29:47;100128.69;;;24.16;87.03
14253;BME280;7210;51.502;10.722;2023-06-22T07:32:14;100120.06;;;24.28;86.66
14253;BME280;7210;51.502;10.722;2023-06-22T07:34:41;100130.22;;;24.44;86.51
14253;BME280;7210;51.502;10.722;2023-06-22T07:37:10;100115.41;;;24.55;85.37
14253;BME280;7210;51.502;10.722;2023-06-22T07:39:37;100115.56;;;24.72;84.75
14253;BME280;7210;51.502;10.722;2023-06-22T07:42:05;100127.69;;;24.75;84.47
14253;BME280;7210;51.502;10.722;2023-06-22T07:44:35;100140.78;;;24.81;84.08
14253;BME280;7210;51.502;10.722;2023-06-22T07:47:03;100142.75;;;24.89;84.00
14253;BME280;7210;51.502;10.722;2023-06-22T07:49:30;100159.91;;;25.07;83.21
14253;BME280;7210;51.502;10.722;2023-06-22T07:51:57;100158.03;;;25.29;82.49
14253;BME280;7210;51.502;10.722;2023-06-22T07:54:26;100154.41;;;25.34;80.98
14253;BME280;7210;51.502;10.722;2023-06-22T07:56:53;100171.81;;;25.41;81.54
14253;BME280;7210;51.502;10.722;2023-06-22T07:59:23;100169.34;;;25.53;80.63
14253;BME280;7210;51.502;10.722;2023-06-22T08:01:50;100172.25;;;25.65;79.77
14253;BME280;7210;51.502;10.722;2023-06-22T08:04:17;100172.72;;;25.59;79.37
14253;BME280;7210;51.502;10.722;2023-06-22T08:06:47;100194.31;;;25.50;80.32
14253;BME280;7210;51.502;10.722;2023-06-22T08:09:15;100196.94;;;25.64;79.92
14253;BME280;7210;51.502;10.722;2023-06-22T08:11:49;100203.53;;;25.71;79.79
14253;BME280;7210;51.502;10.722;2023-06-22T08:14:16;100202.38;;;25.64;79.05
14253;BME280;7210;51.502;10.722;2023-06-22T08:16:43;100213.25;;;25.72;79.27
14253;BME280;7210;51.502;10.722;2023-06-22T08:19:11;100207.72;;;25.77;78.56
14253;BME280;7210;51.502;10.722;2023-06-22T08:21:39;100203.25;;;25.81;77.75
14253;BME280;7210;51.502;10.722;2023-06-22T08:24:06;100217.13;;;25.80;78.28
14253;BME280;7210;51.502;10.722;2023-06-22T08:26:34;100225.34;;;25.88;77.50
14253;BME280;7210;51.502;10.722;2023-06-22T08:29:04;100218.69;;;25.94;76.90
14253;BME280;7210;51.502;10.722;2023-06-22T08:31:32;100245.16;;;25.97;76.90
14253;BME280;7210;51.502;10.722;2023-06-22T08:34:00;100257.84;;;26.19;76.69
14253;BME280;7210;51.502;10.722;2023-06-22T08:36:27;100255.22;;;26.36;76.44
14253;BME280;7210;51.502;10.722;2023-06-22T08:38:58;100234.94;;;26.42;75.67
14253;BME280;7210;51.502;10.722;2023-06-22T08:41:28;100232.22;;;26.33;75.63
14253;BME280;7210;51.502;10.722;2023-06-22T08:43:55;100242.56;;;26.23;76.14
14253;BME280;7210;51.502;10.722;2023-06-22T08:46:24;100247.69;;;26.24;76.67
14253;BME280;7210;51.502;10.722;2023-06-22T08:48:56;100246.09;;;26.32;76.09
14253;BME280;7210;51.502;10.722;2023-06-22T08:51:24;100226.47;;;26.26;75.69
14253;BME280;7210;51.502;10.722;2023-06-22T08:53:51;100217.84;;;26.33;74.68
14253;BME280;7210;51.502;10.722;2023-06-22T08:56:18;100224.91;;;26.42;74.80
14253;BME280;7210;51.502;10.722;2023-06-22T08:58:46;100222.66;;;26.44;74.06
14253;BME280;7210;51.502;10.722;2023-06-22T09:01:13;100252.38;;;26.49;74.88
14253;BME280;7210;51.502;10.722;2023-06-22T09:03:42;100230.19;;;26.47;74.64
14253;BME280;7210;51.502;10.722;2023-06-22T09:06:10;100240.59;;;26.54;74.48
14253;BME280;7210;51.502;10.722;2023-06-22T09:08:38;100222.25;;;26.59;74.07
14253;BME280;7210;51.502;10.722;2023-06-22T09:11:05;100210.00;;;26.70;73.33
14253;BME280;7210;51.502;10.722;2023-06-22T09:13:33;100232.34;;;26.84;72.74
14253;BME280;7210;51.502;10.722;2023-06-22T09:16:00;100215.78;;;26.94;71.42
14253;BME280;7210;51.502;10.722;2023-06-22T09:18:27;100237.50;;;27.11;70.71
14253;BME280;7210;51.502;10.722;2023-06-22T09:20:56;100247.88;;;27.35;70.61
14253;BME280;7210;51.502;10.722;2023-06-22T09:23:23;100247.91;;;27.52;69.69
14253;BME280;7210;51.502;10.722;2023-06-22T09:25:50;100266.56;;;27.70;69.39
14253;BME280;7210;51.502;10.722;2023-06-22T09:28:18;100268.78;;;27.85;68.76
14253;BME280;7210;51.502;10.722;2023-06-22T09:30:45;100233.13;;;27.87;66.62
14253;BME280;7210;51.502;10.722;2023-06-22T09:33:12;100271.66;;;27.97;66.30
14253;BME280;7210;51.502;10.722;2023-06-22T09:35:39;100304.22;;;28.14;66.81
14253;BME280;7210;51.502;10.722;2023-06-22T09:38:08;100282.09;;;28.24;66.00
14253;BME280;7210;51.502;10.722;2023-06-22T09:40:35;100287.53;;;28.41;65.39
14253;BME280;7210;51.502;10.722;2023-06-22T09:43:05;100304.28;;;28.52;65.21
14253;BME280;7210;51.502;10.722;2023-06-22T09:45:33;100320.41;;;28.65;65.03
14253;BME280;7210;51.502;10.722;2023-06-22T09:48:00;100306.00;;;28.85;63.44
14253;BME280;7210;51.502;10.722;2023-06-22T09:50:27;100324.56;;;28.91;63.00
14253;BME280;7210;51.502;10.722;2023-06-22T09:52:54;100339.75;;;29.01;62.84
14253;BME280;7210;51.502;10.722;2023-06-22T09:55:24;100320.81;;;29.04;62.20
14253;BME280;7210;51.502;10.722;2023-06-22T09:57:52;100333.41;;;29.17;62.16
14253;BME280;7210;51.502;10.722;2023-06-22T10:00:20;100339.94;;;29.25;62.16
14253;BME280;7210;51.502;10.722;2023-06-22T10:02:48;100311.16;;;29.15;61.38
14253;BME280;7210;51.502;10.722;2023-06-22T10:05:16;100318.38;;;29.11;61.75
14253;BME280;7210;51.502;10.722;2023-06-22T10:07:43;100329.50;;;29.27;61.16
14253;BME280;7210;51.502;10.722;2023-06-22T10:10:12;100323.63;;;29.37;60.90
14253;BME280;7210;51.502;10.722;2023-06-22T10:12:45;100320.00;;;29.33;61.03
14253;BME280;7210;51.502;10.722;2023-06-22T10:15:12;100298.28;;;29.36;60.37
14253;BME280;7210;51.502;10.722;2023-06-22T10:17:42;100327.50;;;29.56;60.49
14253;BME280;7210;51.502;10.722;2023-06-22T10:20:14;100312.94;;;29.73;59.45
14253;BME280;7210;51.502;10.722;2023-06-22T10:22:44;100375.78;;;29.97;60.30
14253;BME280;7210;51.502;10.722;2023-06-22T10:25:13;100308.09;;;30.23;58.40
14253;BME280;7210;51.502;10.722;2023-06-22T10:27:41;100328.69;;;30.32;57.56
14253;BME280;7210;51.502;10.722;2023-06-22T10:30:11;100337.72;;;30.57;57.14
14253;BME280;7210;51.502;10.722;2023-06-22T10:32:39;100343.66;;;30.71;56.83
14253;BME280;7210;51.502;10.722;2023-06-22T10:35:09;100298.34;;;30.70;55.86
14253;BME280;7210;51.502;10.722;2023-06-22T10:37:39;100295.88;;;30.65;55.34
14253;BME280;7210;51.502;10.722;2023-06-22T10:40:10;100342.41;;;30.80;56.02
14253;BME280;7210;51.502;10.722;2023-06-22T10:42:37;100334.31;;;30.96;55.30
14253;BME280;7210;51.502;10.722;2023-06-22T10:45:08;100325.19;;;30.92;55.50
14253;BME280;7210;51.502;10.722;2023-06-22T10:47:35;100320.84;;;31.03;55.15
14253;BME280;7210;51.502;10.722;2023-06-22T10:50:04;100307.28;;;31.06;54.93
14253;BME280;7210;51.502;10.722;2023-06-22T10:52:31;100318.59;;;30.93;54.95
14253;BME280;7210;51.502;10.722;2023-06-22T10:54:59;100302.53;;;30.91;55.09
14253;BME280;7210;51.502;10.722;2023-06-22T10:57:26;100254.84;;;30.77;54.50
14253;BME280;7210;51.502;10.722;2023-06-22T10:59:53;100251.34;;;30.64;54.54
14253;BME280;7210;51.502;10.722;2023-06-22T11:02:22;100307.44;;;30.86;54.60
14253;BME280;7210;51.502;10.722;2023-06-22T11:04:49;100270.34;;;30.85;54.28
14253;BME280;7210;51.502;10.722;2023-06-22T11:07:17;100316.31;;;30.95;54.62
14253;BME280;7210;51.502;10.722;2023-06-22T11:09:44;100304.72;;;30.98;54.38
14253;BME280;7210;51.502;10.722;2023-06-22T11:12:11;100296.03;;;31.08;54.79
14253;BME280;7210;51.502;10.722;2023-06-22T11:14:39;100338.16;;;31.31;54.92
14253;BME280;7210;51.502;10.722;2023-06-22T11:17:06;100262.94;;;31.37;52.84
14253;BME280;7210;51.502;10.722;2023-06-22T11:19:35;100264.63;;;31.41;52.51
14253;BME280;7210;51.502;10.722;2023-06-22T11:22:02;100269.78;;;31.31;52.84
14253;BME280;7210;51.502;10.722;2023-06-22T11:24:29;100247.03;;;31.27;52.71
14253;BME280;7210;51.502;10.722;2023-06-22T11:26:57;100295.03;;;31.40;53.52
14253;BME280;7210;51.502;10.722;2023-06-22T11:29:24;100282.47;;;31.51;53.17
14253;BME280;7210;51.502;10.722;2023-06-22T11:31:53;100272.28;;;31.63;52.55
14253;BME280;7210;51.502;10.722;2023-06-22T11:34:26;100266.91;;;31.67;52.26
14253;BME280;7210;51.502;10.722;2023-06-22T11:37:02;100290.69;;;31.51;53.44
14253;BME280;7210;51.502;10.722;2023-06-22T11:39:31;100305.66;;;31.69;53.56
14253;BME280;7210;51.502;10.722;2023-06-22T11:41:59;100301.66;;;31.94;53.26
14253;BME280;7210;51.502;10.722;2023-06-22T11:44:27;100249.75;;;31.97;51.83
14253;BME280;7210;51.502;10.722;2023-06-22T11:46:55;100251.97;;;31.92;52.40
14253;BME280;7210;51.502;10.722;2023-06-22T11:49:22;100269.81;;;32.17;51.71
14253;BME280;7210;51.502;10.722;2023-06-22T11:51:49;100236.78;;;32.10;51.60
14253;BME280;7210;51.502;10.722;2023-06-22T11:54:18;100268.22;;;32.16;52.13
14253;BME280;7210;51.502;10.722;2023-06-22T11:56:45;100222.13;;;32.02;51.98
14253;BME280;7210;51.502;10.722;2023-06-22T11:59:12;100235.38;;;32.16;52.02
14253;BME280;7210;51.502;10.722;2023-06-22T12:01:39;100244.09;;;32.21;51.83
14253;BME280;7210;51.502;10.722;2023-06-22T12:04:11;100172.75;;;31.99;51.39
14253;BME280;7210;51.502;10.722;2023-06-22T12:06:41;100157.50;;;31.98;50.84
14253;BME280;7210;51.502;10.722;2023-06-22T12:09:09;100197.06;;;32.00;51.19
14253;BME280;7210;51.502;10.722;2023-06-22T12:11:38;100238.53;;;32.18;51.76
14253;BME280;7210;51.502;10.722;2023-06-22T12:14:05;100186.06;;;32.16;50.88
14253;BME280;7210;51.502;10.722;2023-06-22T12:16:32;100204.28;;;32.24;51.61
14253;BME280;7210;51.502;10.722;2023-06-22T12:18:59;100172.03;;;32.17;50.90
14253;BME280;7210;51.502;10.722;2023-06-22T12:21:26;100162.97;;;31.98;51.19
14253;BME280;7210;51.502;10.722;2023-06-22T12:23:54;100223.03;;;32.22;51.71
14253;BME280;7210;51.502;10.722;2023-06-22T12:26:23;100215.25;;;32.39;51.21
14253;BME280;7210;51.502;10.722;2023-06-22T12:28:52;100235.44;;;32.50;51.33
14253;BME280;7210;51.502;10.722;2023-06-22T12:31:19;100181.06;;;32.68;50.09
14253;BME280;7210;51.502;10.722;2023-06-22T12:33:46;100175.66;;;32.71;50.23
14253;BME280;7210;51.502;10.722;2023-06-22T12:36:17;100182.97;;;32.67;50.66
14253;BME280;7210;51.502;10.722;2023-06-22T12:38:44;100196.53;;;32.95;49.81
14253;BME280;7210;51.502;10.722;2023-06-22T12:41:12;100193.50;;;33.00;49.81
14253;BME280;7210;51.502;10.722;2023-06-22T12:43:40;100179.69;;;33.15;49.06
14253;BME280;7210;51.502;10.722;2023-06-22T12:46:08;100163.31;;;33.18;48.76
14253;BME280;7210;51.502;10.722;2023-06-22T12:48:35;100142.25;;;33.22;48.67
14253;BME280;7210;51.502;10.722;2023-06-22T12:51:07;100125.97;;;32.92;48.91
14253;BME280;7210;51.502;10.722;2023-06-22T12:53:35;100108.28;;;32.70;48.62
14253;BME280;7210;51.502;10.722;2023-06-22T12:56:02;100082.44;;;32.33;48.83
14253;BME280;7210;51.502;10.722;2023-06-22T12:58:29;100148.50;;;32.47;49.58
14253;BME280;7210;51.502;10.722;2023-06-22T13:00:56;100132.91;;;32.86;48.93
14253;BME280;7210;51.502;10.722;2023-06-22T13:03:25;100128.56;;;32.85;48.74
14253;BME280;7210;51.502;10.722;2023-06-22T13:05:54;100141.41;;;33.00;48.16